createdAt,value
2022-10-05T00:10:46.340Z,11.74
2022-10-05T00:22:46.356Z,11.73
2022-10-05T00:34:46.393Z,11.72
2022-10-05T00:46:46.701Z,11.70
2022-10-05T00:58:46.367Z,11.68
2022-10-05T01:10:46.466Z,11.67
2022-10-05T01:22:46.400Z,11.66
2022-10-05T01:34:46.459Z,11.65
2022-10-05T01:46:46.767Z,11.64
2022-10-05T01:58:46.418Z,11.62
2022-10-05T02:10:46.516Z,11.61
2022-10-05T02:22:46.537Z,11.60
2022-10-05T02:34:46.547Z,11.58
2022-10-05T02:46:46.605Z,11.57
2022-10-05T02:58:46.563Z,11.55
2022-10-05T03:10:46.460Z,11.54
2022-10-05T03:22:46.221Z,11.53
2022-10-05T03:34:46.192Z,11.50
2022-10-05T03:46:46.581Z,11.50
2022-10-05T03:58:46.188Z,11.48
2022-10-05T04:10:46.201Z,11.47
2022-10-05T04:22:46.174Z,11.46
2022-10-05T04:34:46.172Z,11.44
2022-10-05T04:46:46.514Z,11.43
2022-10-05T04:58:46.178Z,11.42
2022-10-05T05:10:46.166Z,11.40
2022-10-05T05:22:46.289Z,11.39
2022-10-05T05:34:46.173Z,11.38
2022-10-05T05:47:02.892Z,11.35
2022-10-05T05:58:46.420Z,11.34
2022-10-05T06:10:46.171Z,11.34
2022-10-05T06:22:46.168Z,11.35
2022-10-05T06:34:46.169Z,11.35
2022-10-05T06:46:46.408Z,11.34
2022-10-05T06:58:46.166Z,11.34
2022-10-05T07:10:46.164Z,11.38
2022-10-05T07:22:46.164Z,11.40
2022-10-05T07:34:46.170Z,11.42
2022-10-05T07:46:46.551Z,11.44
2022-10-05T07:58:46.172Z,11.44
2022-10-05T08:10:46.171Z,11.44
2022-10-05T08:22:46.172Z,11.44
2022-10-05T08:34:46.177Z,11.44
2022-10-05T08:46:46.165Z,11.46
2022-10-05T08:58:46.237Z,11.46
2022-10-05T09:10:46.159Z,11.47
2022-10-05T09:22:46.163Z,11.48
2022-10-05T09:34:46.175Z,11.52
2022-10-05T09:46:46.252Z,11.60
2022-10-05T09:58:46.171Z,11.81
2022-10-05T10:10:46.749Z,11.60
2022-10-05T10:22:46.181Z,11.66
2022-10-05T10:34:46.175Z,11.85
2022-10-05T10:46:46.671Z,12.12
2022-10-05T10:58:46.167Z,12.22
2022-10-05T11:10:46.173Z,12.37
2022-10-05T11:22:46.375Z,12.54
2022-10-05T11:34:46.360Z,12.64
2022-10-05T11:46:46.315Z,12.59
2022-10-05T11:58:46.280Z,12.72
2022-10-05T12:10:46.694Z,12.76
2022-10-05T12:22:46.275Z,12.77
2022-10-05T12:34:46.228Z,12.77
2022-10-05T12:46:46.183Z,12.73
2022-10-05T12:58:46.168Z,12.69
2022-10-05T13:10:46.284Z,12.65
2022-10-05T13:22:46.173Z,12.61
2022-10-05T13:34:46.182Z,12.67
2022-10-05T13:46:46.266Z,12.67
2022-10-05T13:58:46.261Z,12.67
2022-10-05T14:10:46.169Z,12.67
2022-10-05T14:22:46.285Z,12.62
2022-10-05T14:34:46.177Z,12.59
2022-10-05T14:46:46.201Z,12.55
2022-10-05T14:58:46.177Z,12.54
2022-10-05T15:10:46.180Z,12.52
2022-10-05T15:43:53.279Z,12.47
2022-10-05T15:55:53.177Z,12.44
2022-10-05T16:07:53.158Z,12.40
2022-10-05T16:19:53.240Z,12.39
2022-10-05T16:31:53.173Z,12.38
2022-10-05T16:43:53.154Z,12.35
2022-10-05T16:55:53.214Z,12.35
2022-10-05T17:07:53.156Z,12.33
2022-10-05T17:19:53.245Z,12.31
2022-10-05T17:31:53.249Z,12.30
2022-10-05T17:43:53.213Z,12.28
2022-10-05T17:55:53.357Z,12.27
2022-10-05T18:07:53.234Z,12.25
2022-10-05T18:19:53.236Z,12.23
2022-10-05T18:31:53.161Z,12.23
2022-10-05T18:43:53.151Z,12.21
2022-10-05T18:55:53.165Z,12.20
2022-10-05T19:07:53.163Z,12.18
2022-10-05T19:19:53.157Z,12.17
2022-10-05T19:31:53.161Z,12.15
2022-10-05T19:43:53.186Z,12.14
2022-10-05T19:55:53.237Z,12.12
2022-10-05T20:07:53.158Z,12.10
2022-10-05T20:19:53.160Z,12.09
2022-10-05T20:31:53.169Z,12.08
2022-10-05T20:43:54.507Z,12.06
2022-10-05T20:55:53.156Z,12.05
2022-10-05T21:07:53.160Z,12.03
2022-10-05T21:19:53.213Z,12.02
2022-10-05T21:31:53.227Z,12.01
2022-10-05T21:43:53.162Z,12.00
2022-10-05T21:55:53.167Z,11.98
2022-10-05T22:07:53.168Z,11.96
2022-10-05T22:19:53.166Z,11.95
2022-10-05T22:31:53.200Z,11.94
2022-10-05T22:43:53.168Z,11.92
2022-10-05T22:55:53.162Z,11.92
2022-10-05T23:07:53.166Z,11.90
2022-10-05T23:19:53.167Z,11.89
2022-10-05T23:31:53.171Z,11.88
2022-10-05T23:43:53.164Z,11.85
2022-10-05T23:55:53.206Z,11.85
